Time;durP1;ratioP1;P1;durP2;ratioP2;P2;SDS_P1;SDS_P2;PMS_P1;PMS_P2;Temp;Humidity;BMP_temperature;BMP_pressure;BME280_temperature;BME280_humidity;BME280_pressure;Samples;Min_cycle;Max_cycle;Signal;HPM_P1;HPM_P2
2022/07/12 00:00:09;;;;;;;2.33;1.80;;;;;;;17.97;62.26;99759.16;5138830;28;20058;-70
2022/07/12 00:03:00;;;;;;;3.38;1.80;;;;;;;18.06;62.15;99752.78;5140192;28;20539;-70
2022/07/12 00:05:50;;;;;;;4.43;1.92;;;;;;;18.05;61.99;99756.47;5137672;28;20046;-70
2022/07/12 00:08:41;;;;;;;3.70;1.90;;;;;;;18.07;62.10;99761.66;5154833;28;20096;-70
2022/07/12 00:11:31;;;;;;;2.58;1.63;;;;;;;17.97;62.41;99771.75;5133499;28;20062;-70
2022/07/12 00:14:21;;;;;;;1.92;1.67;;;;;;;17.90;61.85;99768.09;5135951;28;20046;-70
2022/07/12 00:17:11;;;;;;;1.80;1.70;;;;;;;18.00;61.97;99777.59;5138477;28;20066;-71
2022/07/12 00:20:02;;;;;;;1.70;1.60;;;;;;;18.07;62.13;99773.22;5139140;28;20643;-70
2022/07/12 00:22:52;;;;;;;3.17;1.73;;;;;;;18.16;62.11;99770.53;5141539;28;20051;-70
2022/07/12 00:25:43;;;;;;;2.63;1.95;;;;;;;18.11;62.06;99765.66;5138359;28;20117;-70
2022/07/12 00:28:33;;;;;;;3.45;1.75;;;;;;;18.13;61.61;99777.06;5137456;28;20062;-70
2022/07/12 00:31:24;;;;;;;3.05;2.00;;;;;;;17.98;62.35;99770.75;5141815;28;20065;-70
2022/07/12 00:34:14;;;;;;;1.95;1.73;;;;;;;17.89;63.28;99769.13;5142490;28;20393;-70
2022/07/12 00:37:04;;;;;;;2.08;1.88;;;;;;;17.77;63.30;99761.41;5133363;28;20069;-70
2022/07/12 00:39:55;;;;;;;2.90;2.03;;;;;;;17.86;63.09;99764.91;5142536;28;20061;-71
2022/07/12 00:42:45;;;;;;;2.97;1.90;;;;;;;17.95;62.88;99774.63;5138218;28;20054;-70
2022/07/12 00:45:35;;;;;;;3.35;1.95;;;;;;;17.96;62.64;99765.56;5138654;28;20062;-70
2022/07/12 00:48:25;;;;;;;2.35;1.92;;;;;;;17.93;62.60;99767.75;5140162;28;20047;-71
2022/07/12 00:51:17;;;;;;;1.67;1.58;;;;;;;17.80;62.47;99761.06;5141428;28;20054;-70
2022/07/12 00:54:08;;;;;;;2.65;1.88;;;;;;;17.70;63.31;99763.06;5140147;28;20528;-70
2022/07/12 00:56:58;;;;;;;4.32;1.90;;;;;;;17.90;62.58;99768.91;5134249;28;20043;-71
2022/07/12 00:59:49;;;;;;;1.98;1.70;;;;;;;17.87;63.00;99771.13;5137215;28;20137;-70
2022/07/12 01:02:40;;;;;;;2.25;1.77;;;;;;;17.88;62.95;99770.09;5135994;28;20417;-70
2022/07/12 01:05:31;;;;;;;4.15;1.90;;;;;;;17.98;62.82;99770.75;5137881;28;20145;-70
2022/07/12 01:08:21;;;;;;;3.08;1.88;;;;;;;17.99;62.25;99772.44;5139540;28;20046;-71
2022/07/12 01:11:12;;;;;;;4.05;2.00;;;;;;;17.94;63.08;99758.69;5137348;28;20090;-71
2022/07/12 01:14:03;;;;;;;4.47;2.20;;;;;;;18.03;63.23;99776.44;5140443;28;20058;-71
2022/07/12 01:16:54;;;;;;;3.80;1.70;;;;;;;17.97;62.90;99775.28;5141443;28;20057;-72
2022/07/12 01:19:44;;;;;;;1.88;1.77;;;;;;;17.86;63.77;99769.44;5141383;28;20418;-72
2022/07/12 01:22:36;;;;;;;1.75;1.50;;;;;;;17.92;63.90;99771.44;5137147;28;20212;-72
2022/07/12 01:25:27;;;;;;;3.47;2.20;;;;;;;17.83;64.27;99765.25;5133977;28;20062;-72
2022/07/12 01:28:18;;;;;;;3.95;2.33;;;;;;;17.93;63.88;99776.63;5130909;28;20142;-72
2022/07/12 01:31:08;;;;;;;2.42;2.17;;;;;;;18.08;63.54;99768.72;5138903;28;20054;-72
2022/07/12 01:33:59;;;;;;;3.10;2.25;;;;;;;18.03;63.69;99777.28;5135932;28;20519;-72
2022/07/12 01:36:50;;;;;;;2.53;2.20;;;;;;;17.91;63.42;99775.94;5134959;28;20051;-72
2022/07/12 01:39:41;;;;;;;6.78;2.00;;;;;;;17.97;63.10;99769.91;5137461;28;20152;-72
2022/07/12 01:42:31;;;;;;;2.47;2.28;;;;;;;17.88;63.44;99770.97;5139226;28;20488;-73
2022/07/12 01:45:22;;;;;;;3.13;2.05;;;;;;;17.81;63.05;99776.19;5137234;28;20101;-72
2022/07/12 01:48:12;;;;;;;2.72;2.25;;;;;;;17.75;63.62;99776.00;5135521;28;20098;-72
2022/07/12 01:51:02;;;;;;;3.45;2.00;;;;;;;17.55;63.18;99757.59;5130549;28;20063;-72
2022/07/12 01:53:53;;;;;;;2.78;2.05;;;;;;;17.48;63.57;99775.38;5125307;28;20113;-72
2022/07/12 01:56:43;;;;;;;3.63;2.10;;;;;;;17.27;63.83;99762.47;5131950;28;20560;-71
2022/07/12 01:59:34;;;;;;;4.43;2.20;;;;;;;17.25;63.52;99772.53;5135612;28;20069;-71
2022/07/12 02:02:26;;;;;;;2.00;1.80;;;;;;;17.21;63.67;99762.28;5133142;28;20055;-71
2022/07/12 02:05:20;;;;;;;4.80;1.77;;;;;;;17.13;63.62;99763.97;5148685;28;20054;-71
2022/07/12 02:08:10;;;;;;;3.55;2.17;;;;;;;17.02;64.56;99766.13;5136882;28;20685;-71
2022/07/12 02:11:00;;;;;;;2.00;1.80;;;;;;;16.99;64.13;99771.84;5137237;28;20073;-71
2022/07/12 02:13:50;;;;;;;2.58;1.77;;;;;;;16.76;63.91;99759.09;5134552;28;20074;-71
2022/07/12 02:16:41;;;;;;;4.25;2.00;;;;;;;16.80;63.77;99767.63;5135714;28;20446;-71
2022/07/12 02:19:31;;;;;;;1.92;1.73;;;;;;;16.81;64.58;99777.31;5133921;28;20113;-71
2022/07/12 02:22:22;;;;;;;2.00;1.63;;;;;;;16.80;63.81;99775.66;5130973;28;20133;-71
2022/07/12 02:25:12;;;;;;;6.38;1.90;;;;;;;16.67;64.56;99776.09;5141530;28;20078;-71
2022/07/12 02:28:02;;;;;;;1.92;1.80;;;;;;;16.79;64.29;99763.28;5134333;28;20051;-71
2022/07/12 02:30:52;;;;;;;3.22;2.03;;;;;;;16.53;63.58;99715.19;5134990;28;20523;-71
2022/07/12 02:33:43;;;;;;;3.67;1.90;;;;;;;16.66;63.79;99772.59;5134103;28;20057;-71
2022/07/12 02:36:33;;;;;;;2.70;2.03;;;;;;;16.63;63.81;99772.09;5131853;28;20050;-71
2022/07/12 02:39:23;;;;;;;2.17;1.98;;;;;;;16.47;64.45;99770.19;5137497;28;20076;-71
2022/07/12 02:42:14;;;;;;;2.47;1.90;;;;;;;16.18;63.95;99727.78;5132589;28;20449;-71
2022/07/12 02:45:04;;;;;;;3.80;2.35;;;;;;;16.38;64.05;99768.47;5137951;28;20057;-71
2022/07/12 02:47:54;;;;;;;2.38;2.17;;;;;;;16.34;64.63;99772.50;5135921;28;20153;-71
2022/07/12 02:50:44;;;;;;;2.75;2.45;;;;;;;16.10;65.02;99763.38;5133553;28;20054;-71
2022/07/12 02:53:34;;;;;;;2.38;2.17;;;;;;;15.79;65.08;99754.19;5135160;28;20055;-71
2022/07/12 02:56:30;;;;;;;2.75;2.33;;;;;;;15.86;65.74;99758.75;5133781;28;20057;-71
2022/07/12 02:59:20;;;;;;;4.82;2.95;;;;;;;16.01;65.52;99768.84;5134595;28;20099;-70
2022/07/12 03:02:10;;;;;;;2.60;2.40;;;;;;;16.10;65.08;99767.88;5133672;28;20079;-71
2022/07/12 03:05:01;;;;;;;3.33;2.70;;;;;;;15.93;65.71;99773.16;5133478;28;20413;-70
2022/07/12 03:07:51;;;;;;;3.72;2.70;;;;;;;16.01;65.71;99774.19;5139927;28;20082;-70
2022/07/12 03:10:41;;;;;;;3.75;3.25;;;;;;;15.97;65.61;99774.50;5132146;28;20530;-71
2022/07/12 03:13:33;;;;;;;3.22;2.92;;;;;;;15.92;64.86;99758.09;5138740;28;20420;-72
2022/07/12 03:16:23;;;;;;;4.70;3.13;;;;;;;15.88;65.18;99775.44;5137469;28;20091;-71
2022/07/12 03:19:13;;;;;;;3.45;3.15;;;;;;;15.94;65.03;99777.50;5136401;28;20066;-71
2022/07/12 03:22:03;;;;;;;6.25;3.20;;;;;;;15.85;65.07;99788.31;5136262;28;20540;-71
2022/07/12 03:24:53;;;;;;;5.18;3.15;;;;;;;15.62;65.99;99777.28;5134199;28;20153;-72
2022/07/12 03:27:44;;;;;;;4.32;2.97;;;;;;;15.54;65.92;99774.56;5134942;28;20046;-71
2022/07/12 03:30:34;;;;;;;2.90;2.50;;;;;;;15.58;65.53;99789.28;5136633;28;20062;-71
2022/07/12 03:33:25;;;;;;;5.78;2.90;;;;;;;15.68;65.50;99790.88;5133966;28;20113;-72
2022/07/12 03:36:22;;;;;;;9.15;2.97;;;;;;;15.73;65.09;99803.78;5134560;28;20438;-71
2022/07/12 03:39:12;;;;;;;3.97;3.08;;;;;;;15.58;66.11;99790.13;5136765;28;20065;-71
2022/07/12 03:42:02;;;;;;;6.80;3.20;;;;;;;15.32;66.40;99799.94;5130710;28;20066;-72
2022/07/12 03:44:52;;;;;;;3.20;2.90;;;;;;;15.33;67.40;99813.16;5136280;28;20058;-72
2022/07/12 03:47:42;;;;;;;3.50;3.15;;;;;;;15.77;65.66;99810.50;5133959;28;20051;-71
2022/07/12 03:50:35;;;;;;;5.40;2.95;;;;;;;15.74;65.92;99818.81;5136258;28;20053;-71
2022/07/12 03:53:26;;;;;;;4.30;3.47;;;;;;;15.56;66.58;99818.81;5133504;28;20055;-72
2022/07/12 03:59:25;;;;;;;4.70;3.15;;;;;;;15.37;67.40;99819.03;5134676;28;20055;-72
2022/07/12 04:02:15;;;;;;;5.32;3.17;;;;;;;15.34;67.64;99830.84;5133182;28;20077;-72
2022/07/12 04:05:07;;;;;;;5.10;3.22;;;;;;;15.39;67.07;99833.88;5145284;28;20058;-71
2022/07/12 04:07:57;;;;;;;5.97;3.13;;;;;;;15.62;67.08;99841.44;5139017;28;20089;-71
2022/07/12 04:10:47;;;;;;;5.47;3.38;;;;;;;15.70;67.49;99841.53;5137008;28;20062;-71
2022/07/12 04:13:37;;;;;;;4.15;3.30;;;;;;;15.87;67.36;99837.97;5133781;28;20055;-71
2022/07/12 04:16:29;;;;;;;11.10;3.83;;;;;;;15.89;67.35;99835.13;5134687;28;20521;-72
2022/07/12 04:19:23;;;;;;;3.72;3.15;;;;;;;15.88;67.46;99833.47;5136530;28;20058;-71
2022/07/12 04:22:13;;;;;;;4.95;3.55;;;;;;;15.86;67.84;99822.06;5132717;28;20536;-71
2022/07/12 04:25:06;;;;;;;4.68;3.53;;;;;;;16.07;67.08;99827.06;5133790;28;20524;-72
2022/07/12 04:27:56;;;;;;;9.10;3.30;;;;;;;16.15;67.81;99824.41;5147912;28;20523;-71
2022/07/12 04:30:46;;;;;;;6.03;3.97;;;;;;;16.37;67.42;99821.19;5135700;28;20671;-71
2022/07/12 04:33:37;;;;;;;5.20;3.55;;;;;;;16.07;68.68;99824.38;5137988;28;20130;-71
2022/07/12 04:36:27;;;;;;;4.47;3.53;;;;;;;16.02;68.29;99832.88;5131960;28;20055;-72
2022/07/12 04:39:18;;;;;;;5.82;3.30;;;;;;;16.07;66.69;99827.88;5134379;28;20051;-71
2022/07/12 04:42:08;;;;;;;7.72;3.75;;;;;;;16.17;68.09;99835.81;5132828;28;20050;-71
2022/07/12 04:44:58;;;;;;;6.22;4.10;;;;;;;16.16;68.30;99826.13;5137026;28;20054;-71
2022/07/12 04:47:48;;;;;;;6.25;4.63;;;;;;;16.47;68.33;99829.09;5139207;28;20053;-71
2022/07/12 04:50:38;;;;;;;7.15;4.43;;;;;;;16.29;69.68;99831.00;5137782;28;20053;-71
2022/07/12 04:53:29;;;;;;;8.80;4.50;;;;;;;16.28;68.86;99806.09;5142435;28;20077;-71
2022/07/12 04:56:19;;;;;;;7.72;4.72;;;;;;;16.54;69.43;99826.59;5136706;28;20043;-71
2022/07/12 04:59:09;;;;;;;8.15;5.00;;;;;;;16.74;68.01;99822.66;5143002;28;20123;-73
2022/07/12 05:02:01;;;;;;;7.20;4.78;;;;;;;16.81;67.64;99831.72;5140479;28;20047;-72
2022/07/12 05:04:51;;;;;;;8.27;5.57;;;;;;;16.71;67.88;99828.31;5142946;28;20050;-72
2022/07/12 05:07:41;;;;;;;6.00;4.55;;;;;;;16.70;68.04;99834.69;5140159;28;20094;-72
2022/07/12 05:10:36;;;;;;;5.25;4.75;;;;;;;16.77;66.92;99841.09;5138530;28;20614;-71
2022/07/12 05:13:26;;;;;;;9.02;5.00;;;;;;;16.68;68.77;99842.03;5138585;28;20057;-71
2022/07/12 05:16:16;;;;;;;6.72;4.32;;;;;;;16.71;68.27;99841.72;5139281;28;20039;-69
2022/07/12 05:19:07;;;;;;;8.15;4.78;;;;;;;17.25;66.96;99844.88;5137539;28;20047;-71
2022/07/12 05:21:58;;;;;;;5.88;4.05;;;;;;;17.33;66.83;99847.56;5141602;28;20055;-73
2022/07/12 05:24:48;;;;;;;9.18;4.03;;;;;;;17.53;65.52;99860.66;5140501;28;20758;-71
2022/07/12 05:27:38;;;;;;;5.38;4.10;;;;;;;17.65;66.22;99851.25;5135885;28;20516;-72
2022/07/12 05:30:28;;;;;;;7.93;4.30;;;;;;;17.72;65.17;99846.06;5141019;28;20621;-72
2022/07/12 05:33:18;;;;;;;10.32;4.10;;;;;;;17.70;64.23;99840.84;5137840;28;20058;-71
2022/07/12 05:36:08;;;;;;;9.98;4.95;;;;;;;17.82;64.90;99863.69;5139289;28;20070;-72
2022/07/12 05:38:59;;;;;;;9.95;3.50;;;;;;;18.05;63.58;99861.13;5139709;28;20046;-72
2022/07/12 05:41:48;;;;;;;5.80;3.63;;;;;;;18.24;62.98;99843.78;5136084;28;20428;-72
2022/07/12 05:44:39;;;;;;;9.50;4.15;;;;;;;18.54;62.75;99857.44;5141822;28;20402;-72
2022/07/12 05:47:31;;;;;;;13.93;4.55;;;;;;;18.18;64.14;99835.59;5139012;28;20047;-72
2022/07/12 05:50:25;;;;;;;12.27;4.25;;;;;;;18.40;63.56;99866.22;5132192;28;20156;-71
2022/07/12 05:53:21;;;;;;;11.48;4.32;;;;;;;18.55;64.03;99872.56;5139039;28;20077;-70
2022/07/12 05:56:13;;;;;;;4.38;2.95;;;;;;;18.67;61.78;99865.78;5135825;28;20055;-72
2022/07/12 05:59:03;;;;;;;12.13;3.17;;;;;;;18.59;61.84;99860.47;5138888;28;20062;-75
2022/07/12 06:01:54;;;;;;;10.40;3.33;;;;;;;18.57;61.56;99872.38;5142589;28;20520;-72
2022/07/12 06:04:44;;;;;;;13.35;3.55;;;;;;;18.78;61.35;99872.66;5129312;28;21003;-72
2022/07/12 06:07:40;;;;;;;7.93;3.35;;;;;;;18.83;60.84;99861.38;5142212;28;20054;-71
2022/07/12 06:10:31;;;;;;;7.45;2.95;;;;;;;18.84;61.47;99873.78;5139945;28;20485;-71
2022/07/12 06:13:20;;;;;;;9.00;3.25;;;;;;;18.90;61.41;99878.47;5139372;28;20054;-72
2022/07/12 06:16:11;;;;;;;15.25;3.90;;;;;;;19.06;61.28;99873.00;5141427;28;20114;-72
2022/07/12 06:19:01;;;;;;;11.30;4.40;;;;;;;19.29;61.07;99878.41;5142244;28;20552;-71
2022/07/12 06:21:51;;;;;;;8.20;4.35;;;;;;;19.25;60.43;99880.63;5140843;28;20051;-72
2022/07/12 06:24:41;;;;;;;7.05;3.58;;;;;;;19.28;61.14;99886.66;5140462;28;20069;-70
2022/07/12 06:27:32;;;;;;;9.82;3.08;;;;;;;19.29;61.34;99864.13;5133252;28;20062;-72
2022/07/12 06:30:23;;;;;;;9.55;2.88;;;;;;;19.63;60.54;99886.06;5138400;28;20089;-72
2022/07/12 06:33:13;;;;;;;6.45;2.78;;;;;;;19.62;61.27;99889.75;5140846;28;20547;-72
2022/07/12 06:36:04;;;;;;;5.75;2.72;;;;;;;19.85;59.03;99887.06;5140148;28;20125;-72
2022/07/12 06:38:54;;;;;;;4.75;2.10;;;;;;;19.91;58.34;99888.22;5141474;28;20528;-72
2022/07/12 06:41:43;;;;;;;6.03;2.00;;;;;;;19.80;58.14;99886.81;5139430;28;20421;-72
2022/07/12 06:44:34;;;;;;;6.82;1.80;;;;;;;20.03;57.89;99884.03;5139787;28;20136;-71
2022/07/12 06:47:25;;;;;;;4.30;2.00;;;;;;;20.43;57.07;99903.50;5143028;28;20421;-72
2022/07/12 06:50:15;;;;;;;8.73;2.20;;;;;;;20.61;57.62;99900.47;5139519;28;20047;-71
2022/07/12 06:53:06;;;;;;;14.43;4.22;;;;;;;20.65;55.18;99890.97;5139581;28;20095;-71
2022/07/12 06:55:57;;;;;;;11.20;1.67;;;;;;;20.91;54.06;99901.25;5136228;28;20053;-71
2022/07/12 06:58:47;;;;;;;1.85;1.42;;;;;;;20.99;54.80;99903.88;5137769;28;20058;-71
2022/07/12 07:01:37;;;;;;;2.08;1.60;;;;;;;21.33;53.51;99894.28;5139198;28;20093;-69
2022/07/12 07:04:28;;;;;;;5.75;1.42;;;;;;;21.86;53.61;99900.22;5128518;28;20054;-69
2022/07/12 07:07:18;;;;;;;8.50;1.58;;;;;;;23.02;51.20;99905.13;5131918;28;20057;-69
2022/07/12 07:10:08;;;;;;;1.77;1.35;;;;;;;24.29;47.61;99912.38;5134253;28;20050;-70
2022/07/12 07:12:58;;;;;;;3.20;1.50;;;;;;;24.89;45.21;99902.22;5131091;28;20149;-69
2022/07/12 07:15:48;;;;;;;3.47;1.20;;;;;;;24.87;44.48;99915.19;5139661;28;20177;-70
2022/07/12 07:18:40;;;;;;;4.90;0.80;;;;;;;25.77;42.89;99909.69;5129246;28;20051;-69
2022/07/12 07:21:30;;;;;;;5.35;1.00;;;;;;;25.07;44.56;99920.53;5129172;28;20055;-69
2022/07/12 07:24:21;;;;;;;5.93;1.00;;;;;;;25.76;42.53;99919.72;5132725;28;20048;-69
2022/07/12 07:27:12;;;;;;;2.92;1.10;;;;;;;25.94;42.04;99932.56;5133421;28;20695;-69
2022/07/12 07:33:12;;;;;;;1.45;0.63;;;;;;;25.66;42.82;99923.94;5136074;28;20061;-69
2022/07/12 07:36:02;;;;;;;4.30;0.60;;;;;;;27.02;40.08;99919.53;5131993;28;20057;-69
2022/07/12 07:38:52;;;;;;;5.32;0.95;;;;;;;26.92;40.50;99920.94;5132408;28;20069;-68
2022/07/12 07:41:42;;;;;;;1.52;0.40;;;;;;;27.19;38.69;99920.63;5136455;28;20142;-70
2022/07/12 07:44:33;;;;;;;1.33;0.70;;;;;;;27.20;39.14;99913.28;5132379;28;20422;-70
2022/07/12 07:47:23;;;;;;;2.83;0.50;;;;;;;27.56;37.75;99907.72;5137912;28;20501;-70
2022/07/12 07:50:13;;;;;;;0.80;0.30;;;;;;;26.75;39.78;99898.09;5133588;28;20051;-69
2022/07/12 07:53:04;;;;;;;1.10;0.40;;;;;;;28.04;37.03;99901.31;5131632;28;20581;-68
2022/07/12 07:55:55;;;;;;;2.50;0.50;;;;;;;26.73;38.31;99907.56;5131482;28;20069;-69
2022/07/12 07:58:45;;;;;;;2.00;0.30;;;;;;;28.66;35.73;99921.84;5131995;28;20050;-70
2022/07/12 08:01:52;;;;;;;1.90;0.35;;;;;;;28.60;35.68;99914.59;5133673;28;20051;-69
2022/07/12 08:04:42;;;;;;;0.90;0.30;;;;;;;28.52;36.38;99896.72;5129810;28;20050;-68
2022/07/12 08:07:33;;;;;;;2.30;0.70;;;;;;;27.90;36.58;99910.78;5133324;28;20120;-69
2022/07/12 08:10:43;;;;;;;1.42;0.45;;;;;;;28.75;37.77;99898.56;5135394;28;20138;-70
2022/07/12 08:13:33;;;;;;;3.40;0.32;;;;;;;29.89;34.06;99900.47;5134856;28;20614;-70
2022/07/12 08:16:24;;;;;;;0.77;0.40;;;;;;;30.22;34.68;99890.63;5131100;28;20074;-71
2022/07/12 08:19:14;;;;;;;4.10;0.40;;;;;;;27.79;36.70;99898.00;5132521;28;20577;-70
2022/07/12 08:22:04;;;;;;;1.55;0.40;;;;;;;26.47;38.92;99887.75;5130600;28;20061;-71
2022/07/12 08:24:54;;;;;;;1.00;0.30;;;;;;;27.13;39.42;99902.50;5139330;28;20062;-70
2022/07/12 08:27:44;;;;;;;0.63;0.30;;;;;;;27.67;37.46;99891.66;5136333;28;20058;-70
2022/07/12 08:30:34;;;;;;;1.58;0.50;;;;;;;26.18;39.08;99879.25;5136447;28;20047;-70
2022/07/12 08:33:34;;;;;;;0.30;0.30;;;;;;;25.60;40.86;99898.53;5140826;28;20121;-69
2022/07/12 08:36:24;;;;;;;0.20;0.20;;;;;;;26.99;39.45;99890.91;5135488;28;20081;-70
2022/07/12 08:39:22;;;;;;;0.25;0.25;;;;;;;29.31;35.67;99901.63;5133080;28;20417;-69
2022/07/12 08:42:15;;;;;;;2.70;0.55;;;;;;;27.97;37.03;99897.88;5140384;28;20142;-70
2022/07/12 08:45:06;;;;;;;0.20;0.20;;;;;;;29.16;33.72;99894.78;5131667;28;20121;-70
2022/07/12 08:47:58;;;;;;;3.88;0.28;;;;;;;29.00;34.38;99901.00;5133272;28;20051;-69
2022/07/12 08:51:06;;;;;;;0.20;0.20;;;;;;;30.69;32.62;99904.66;5136519;28;20051;-68
2022/07/12 08:54:07;;;;;;;0.50;0.20;;;;;;;31.40;30.33;99912.13;5137148;28;20468;-69
2022/07/12 08:56:57;;;;;;;4.43;0.43;;;;;;;27.80;34.99;99910.53;5142028;28;20050;-69
2022/07/12 08:59:48;;;;;;;3.70;0.32;;;;;;;26.63;37.29;99916.25;5136440;28;20050;-68
2022/07/12 09:02:56;;;;;;;0.30;0.20;;;;;;;26.30;38.96;99914.69;5137704;28;20618;-71
2022/07/12 09:05:54;;;;;;;0.52;0.40;;;;;;;25.97;39.06;99923.13;5142902;28;20453;-69
2022/07/12 09:08:45;;;;;;;0.70;0.40;;;;;;;26.41;37.38;99926.69;5133134;28;20077;-68
2022/07/12 09:11:37;;;;;;;0.45;0.35;;;;;;;25.78;40.00;99908.63;5133125;28;20058;-68
2022/07/12 09:14:28;;;;;;;1.00;0.38;;;;;;;27.02;38.32;99920.41;5141391;28;20576;-68
2022/07/12 09:17:21;;;;;;;0.22;0.20;;;;;;;28.14;36.04;99924.44;5130141;28;20572;-71
2022/07/12 09:20:13;;;;;;;0.30;0.20;;;;;;;28.79;34.26;99919.69;5136867;28;20421;-68
2022/07/12 09:23:05;;;;;;;1.02;0.30;;;;;;;30.13;33.08;99909.31;5133705;28;20062;-71
2022/07/12 09:25:55;;;;;;;0.25;0.25;;;;;;;26.64;36.22;99913.31;5133005;28;20414;-69
2022/07/12 09:28:49;;;;;;;0.30;0.28;;;;;;;26.09;37.11;99910.47;5150624;28;20069;-68
2022/07/12 09:38:28;;;;;;;0.50;0.30;;;;;;;27.85;35.38;99894.31;5118907;28;20063;-68
2022/07/12 09:41:20;;;;;;;0.30;0.30;;;;;;;28.28;34.81;99904.06;5113432;28;20191;-69
2022/07/12 09:44:10;;;;;;;0.47;0.20;;;;;;;28.57;33.24;99903.09;5129935;28;20094;-72
2022/07/12 09:47:01;;;;;;;0.40;0.30;;;;;;;29.26;34.25;99894.16;5148455;28;20046;-68
2022/07/12 09:49:53;;;;;;;4.03;0.77;;;;;;;29.72;32.69;99903.19;5134712;28;20556;-71
2022/07/12 09:52:48;;;;;;;0.57;0.35;;;;;;;30.25;31.65;99893.66;5149477;28;20057;-68
2022/07/12 09:55:41;;;;;;;1.55;0.20;;;;;;;30.62;30.92;99906.75;5133804;28;20043;-70
2022/07/12 09:58:38;;;;;;;2.15;0.20;;;;;;;30.43;31.87;99907.09;5133831;28;20122;-70
2022/07/12 10:01:30;;;;;;;0.20;0.20;;;;;;;31.13;31.09;99907.44;5133962;28;20055;-67
2022/07/12 10:04:21;;;;;;;0.20;0.10;;;;;;;30.60;30.89;99904.28;5135736;28;20054;-69
2022/07/12 10:07:16;;;;;;;2.85;0.30;;;;;;;31.28;31.03;99915.81;5133436;28;20555;-69
2022/07/12 10:10:10;;;;;;;0.98;0.22;;;;;;;31.61;29.46;99910.41;5136552;28;20059;-69
2022/07/12 10:13:00;;;;;;;1.00;0.32;;;;;;;31.03;30.70;99910.06;5134647;28;20148;-68
2022/07/12 10:15:51;;;;;;;0.30;0.30;;;;;;;31.21;29.77;99914.38;5141077;28;20449;-67
2022/07/12 10:18:41;;;;;;;0.20;0.20;;;;;;;30.74;29.79;99907.47;5132742;28;20490;-68
2022/07/12 10:21:39;;;;;;;0.20;0.20;;;;;;;31.06;29.56;99902.16;5125048;28;20521;-69
2022/07/12 10:24:31;;;;;;;0.15;0.10;;;;;;;31.35;30.01;99908.25;5136100;28;20671;-69
2022/07/12 10:27:32;;;;;;;0.73;0.20;;;;;;;31.78;28.71;99909.19;5129815;28;20110;-69
2022/07/12 10:30:24;;;;;;;1.27;0.30;;;;;;;30.98;30.80;99910.81;5134915;28;20526;-68
2022/07/12 10:33:19;;;;;;;0.85;0.22;;;;;;;29.76;32.29;99901.63;5137690;28;20051;-68
2022/07/12 10:36:10;;;;;;;1.85;0.20;;;;;;;29.99;33.54;99897.06;5132673;28;20046;-68
2022/07/12 10:39:13;;;;;;;0.20;0.20;;;;;;;29.57;33.46;99886.50;5133121;28;20117;-68
2022/07/12 10:42:06;;;;;;;0.30;0.30;;;;;;;30.32;33.50;99897.06;5132736;28;20058;-69
2022/07/12 10:45:13;;;;;;;0.52;0.17;;;;;;;30.86;30.95;99890.94;5129731;28;20058;-68
2022/07/12 10:48:06;;;;;;;0.93;0.20;;;;;;;31.27;31.11;99888.69;5133784;28;20051;-68
2022/07/12 10:51:13;;;;;;;0.52;0.25;;;;;;;31.31;29.73;99876.94;5133359;28;20164;-68
2022/07/12 10:54:20;;;;;;;0.30;0.30;;;;;;;31.21;29.69;99879.56;5131435;28;20762;-69
2022/07/12 10:57:10;;;;;;;1.30;0.20;;;;;;;31.25;30.25;99869.75;5135830;28;20057;-68
2022/07/12 11:00:01;;;;;;;0.20;0.20;;;;;;;31.41;31.02;99875.41;5137147;28;20410;-68
2022/07/12 11:02:51;;;;;;;0.20;0.20;;;;;;;31.32;30.02;99878.59;5131226;28;20050;-67
2022/07/12 11:05:42;;;;;;;0.32;0.20;;;;;;;31.33;29.86;99879.47;5136599;28;20051;-67
2022/07/12 11:08:51;;;;;;;3.20;0.30;;;;;;;30.19;32.96;99865.41;5130691;28;20058;-67
2022/07/12 11:11:44;;;;;;;1.00;0.30;;;;;;;30.56;30.98;99875.78;5125629;28;20558;-67
2022/07/12 11:14:35;;;;;;;1.45;0.22;;;;;;;29.97;31.16;99880.94;5137654;28;20185;-67
2022/07/12 11:17:27;;;;;;;3.30;0.20;;;;;;;30.11;31.63;99874.03;5132134;28;20095;-68
2022/07/12 11:20:17;;;;;;;0.43;0.40;;;;;;;30.59;32.75;99874.44;5129645;28;20054;-67
2022/07/12 11:23:08;;;;;;;0.82;0.20;;;;;;;30.90;31.79;99872.94;5133863;28;20057;-67
2022/07/12 11:26:03;;;;;;;0.20;0.20;;;;;;;29.54;32.07;99878.78;5131340;28;20808;-68
2022/07/12 11:28:57;;;;;;;3.20;0.30;;;;;;;30.40;32.26;99873.94;5133405;28;20133;-67
2022/07/12 11:31:48;;;;;;;0.65;0.32;;;;;;;30.60;31.84;99876.09;5133335;28;20057;-68
2022/07/12 11:34:39;;;;;;;1.20;0.32;;;;;;;30.30;30.46;99866.41;5130929;28;20058;-67
2022/07/12 11:37:30;;;;;;;0.20;0.20;;;;;;;30.28;31.39;99873.19;5134277;28;20047;-67
2022/07/12 11:40:25;;;;;;;1.92;0.35;;;;;;;30.36;31.92;99872.75;5127878;28;20043;-68
2022/07/12 11:43:15;;;;;;;0.30;0.25;;;;;;;29.61;31.92;99871.31;5127567;28;20071;-69
2022/07/12 11:46:08;;;;;;;0.10;0.10;;;;;;;29.23;31.10;99864.59;5137929;28;20142;-69
2022/07/12 11:48:58;;;;;;;0.50;0.32;;;;;;;29.61;31.22;99868.59;5131750;28;20150;-69
2022/07/12 11:51:51;;;;;;;0.20;0.20;;;;;;;30.03;31.64;99855.28;5135439;28;20078;-69
2022/07/12 11:54:42;;;;;;;1.00;0.30;;;;;;;29.83;32.44;99868.66;5135439;28;20583;-69
2022/07/12 11:57:33;;;;;;;5.00;0.50;;;;;;;30.08;31.92;99865.50;5135952;28;20126;-69
2022/07/12 12:00:24;;;;;;;0.85;0.25;;;;;;;29.69;32.81;99865.41;5139868;28;20142;-69
2022/07/12 12:03:16;;;;;;;0.20;0.15;;;;;;;29.27;32.02;99861.13;5134951;28;20606;-69
2022/07/12 12:06:06;;;;;;;0.25;0.20;;;;;;;29.19;32.64;99853.31;5141376;28;20043;-69
2022/07/12 12:09:04;;;;;;;0.85;0.20;;;;;;;29.57;34.77;99840.03;5139588;28;20556;-68
2022/07/12 12:11:55;;;;;;;1.42;0.35;;;;;;;29.49;33.73;99852.22;5134464;28;20421;-68
2022/07/12 12:14:45;;;;;;;1.15;0.35;;;;;;;29.45;33.38;99849.16;5135305;28;20054;-68
2022/07/12 12:17:36;;;;;;;0.60;0.50;;;;;;;28.81;35.31;99834.84;5131758;28;20126;-68
2022/07/12 12:20:33;;;;;;;1.25;0.47;;;;;;;29.36;32.62;99831.50;5138664;28;20059;-68
2022/07/12 12:23:23;;;;;;;1.10;0.55;;;;;;;29.22;32.70;99835.63;5138709;28;20181;-68
2022/07/12 12:26:16;;;;;;;2.47;0.63;;;;;;;28.49;35.19;99837.19;5137638;28;20077;-68
2022/07/12 12:29:06;;;;;;;0.40;0.30;;;;;;;28.28;34.66;99838.63;5133971;28;20182;-68
2022/07/12 12:31:57;;;;;;;1.45;0.38;;;;;;;28.30;32.96;99837.28;5138251;28;20058;-68
2022/07/12 12:35:10;;;;;;;0.68;0.43;;;;;;;28.80;33.99;99831.25;5133045;28;20049;-68
2022/07/12 12:38:02;;;;;;;2.13;0.20;;;;;;;28.78;34.32;99827.97;5135925;28;20102;-69
2022/07/12 12:40:56;;;;;;;0.40;0.30;;;;;;;27.97;35.32;99827.00;5136033;28;20054;-68
2022/07/12 12:43:47;;;;;;;1.25;0.40;;;;;;;28.25;34.63;99830.91;5128733;28;20528;-68
2022/07/12 12:47:30;;;;;;;1.48;0.22;;;;;;;28.05;35.38;99820.38;5141348;28;20051;-69
2022/07/12 12:50:06;;;;;;;0.47;0.32;;;;;;;28.60;33.95;99830.03;5140244;28;20057;-70
2022/07/12 12:52:57;;;;;;;1.00;0.50;;;;;;;28.05;33.91;99823.94;5134169;28;20539;-69
2022/07/12 12:55:52;;;;;;;2.65;0.40;;;;;;;28.44;33.29;99821.50;5139294;28;20417;-69
2022/07/12 12:58:42;;;;;;;1.20;0.30;;;;;;;27.99;34.26;99819.44;5147178;28;20494;-69
2022/07/12 13:01:32;;;;;;;0.75;0.30;;;;;;;28.48;34.16;99811.81;5136575;28;20106;-69
2022/07/12 13:04:27;;;;;;;0.52;0.30;;;;;;;28.55;32.68;99815.22;5138962;28;20058;-69
2022/07/12 13:07:17;;;;;;;0.93;0.30;;;;;;;28.47;32.78;99820.22;5130800;28;20051;-69
2022/07/12 13:10:08;;;;;;;0.70;0.20;;;;;;;28.45;32.71;99823.19;5140687;28;20057;-68
2022/07/12 13:13:00;;;;;;;0.70;0.38;;;;;;;28.26;32.96;99824.38;5133109;28;20539;-70
2022/07/12 13:15:50;;;;;;;3.35;0.40;;;;;;;28.37;34.42;99811.78;5133628;28;20190;-68
2022/07/12 13:18:40;;;;;;;0.95;0.52;;;;;;;28.61;32.40;99804.38;5140483;28;20165;-69
2022/07/12 13:21:30;;;;;;;0.93;0.30;;;;;;;28.40;34.02;99820.34;5134815;28;20054;-68
2022/07/12 13:24:20;;;;;;;0.63;0.30;;;;;;;27.83;33.98;99814.69;5134165;28;20046;-69
2022/07/12 13:27:11;;;;;;;0.75;0.32;;;;;;;28.39;33.43;99812.38;5134451;28;20448;-69
2022/07/12 13:30:01;;;;;;;2.53;0.30;;;;;;;27.73;32.45;99815.25;5133958;28;20501;-68
2022/07/12 13:32:51;;;;;;;1.85;0.35;;;;;;;27.85;32.98;99818.03;5136041;28;20047;-71
2022/07/12 13:35:42;;;;;;;2.58;0.35;;;;;;;27.91;32.80;99816.22;5135822;28;20517;-70
2022/07/12 13:38:33;;;;;;;0.85;0.32;;;;;;;28.02;32.08;99821.69;5131070;28;20055;-70
2022/07/12 13:41:23;;;;;;;1.33;0.43;;;;;;;28.30;32.70;99818.19;5135769;28;20401;-71